Aviation Digital Data Service (ADDS)

Output produced by METARs form (1211 UTC 07 July 2020)
found at http://www.aviationweather.gov/metar/data/
 
METAR text: RJTC 070601Z 20018KT 9999 -SHRA FEW030 SCT050 BKN170 28/22 Q1006 RMK 1CU030 3SC050 7AC170 A2971
Conditions at: RJTC (TACHIKAWA (JASDF, JP) observed 0601 UTC 07 July 2020
Temperature: 28.0°C (82°F)
Dewpoint: 22.0°C (72°F) [RH = 70%]
Pressure (altimeter): 29.70 inches Hg (1006.0 mb)
Winds: from the SSW (200 degrees) at 21 MPH (18 knots; 9.3 m/s)
Visibility: 6 or more miles (10+ km)
Ceiling: 17000 feet AGL
Clouds: few clouds at 3000 feet AGL
scattered clouds at 5000 feet AGL
broken clouds at 17000 feet AGL
Weather: -SHRA  (light rain showers)

METAR text: RJTC 070347Z 20013KT 9999 FEW030 SCT050 BKN170 29/21 Q1006 RMK 1CU030 3SC050 7AC170 A2972
Conditions at: RJTC (TACHIKAWA (JASDF, JP) observed 0347 UTC 07 July 2020
Temperature: 29.0°C (84°F)
Dewpoint: 21.0°C (70°F) [RH = 62%]
Pressure (altimeter): 29.70 inches Hg (1006.0 mb)
Winds: from the SSW (200 degrees) at 15 MPH (13 knots; 6.7 m/s)
Visibility: 6 or more miles (10+ km)
Ceiling: 17000 feet AGL
Clouds: few clouds at 3000 feet AGL
scattered clouds at 5000 feet AGL
broken clouds at 17000 feet AGL
Weather: no significant weather observed at this time

METAR text: RJTC 070220Z 20015KT 9999 -SHRA FEW030 SCT050 BKN170 29/22 Q1007 RMK 1CU030 3SC050 7AC170 A2974
Conditions at: RJTC (TACHIKAWA (JASDF, JP) observed 0220 UTC 07 July 2020
Temperature: 29.0°C (84°F)
Dewpoint: 22.0°C (72°F) [RH = 66%]
Pressure (altimeter): 29.73 inches Hg (1007.0 mb)
Winds: from the SSW (200 degrees) at 17 MPH (15 knots; 7.7 m/s)
Visibility: 6 or more miles (10+ km)
Ceiling: 17000 feet AGL
Clouds: few clouds at 3000 feet AGL
scattered clouds at 5000 feet AGL
broken clouds at 17000 feet AGL
Weather: -SHRA  (light rain showers)

METAR text: RJTC 070130Z 19013G23KT 9999 -SHRA FEW030 SCT050 BKN160 28/22 Q1007 RMK 1CU030 3SC050 7AC160 A2974
Conditions at: RJTC (TACHIKAWA (JASDF, JP) observed 0130 UTC 07 July 2020
Temperature: 28.0°C (82°F)
Dewpoint: 22.0°C (72°F) [RH = 70%]
Pressure (altimeter): 29.73 inches Hg (1007.0 mb)
Winds: from the S (190 degrees) at 15 MPH (13 knots; 6.7 m/s)
gusting to 26 MPH (23 knots; 11.8 m/s)
Visibility: 6 or more miles (10+ km)
Ceiling: 16000 feet AGL
Clouds: few clouds at 3000 feet AGL
scattered clouds at 5000 feet AGL
broken clouds at 16000 feet AGL
Weather: -SHRA  (light rain showers)

METAR text: RJTC 070101Z 19012KT 9999 -SHRA FEW030 SCT050 BKN160 28/22 Q1007 RMK 1CU030 3SC050 7AC160 A2974
Conditions at: RJTC (TACHIKAWA (JASDF, JP) observed 0101 UTC 07 July 2020
Temperature: 28.0°C (82°F)
Dewpoint: 22.0°C (72°F) [RH = 70%]
Pressure (altimeter): 29.73 inches Hg (1007.0 mb)
Winds: from the S (190 degrees) at 14 MPH (12 knots; 6.2 m/s)
Visibility: 6 or more miles (10+ km)
Ceiling: 16000 feet AGL
Clouds: few clouds at 3000 feet AGL
scattered clouds at 5000 feet AGL
broken clouds at 16000 feet AGL
Weather: -SHRA  (light rain showers)